Corrèze (à définir) (19) - D

Date : 07/04/2012

Place Nom Licence Catégorie Club Temps CN à J-60 Points Différence Nouveau CN
1 DROIN Solène 17925 D16 4201RA 0:13:18 4634 4954 +320 5002
2 BODY Mathilde 10184 D16 7305RA 0:13:51 5413 4757 -656 5501
3 GIRARD Lucille 19689 D16 3705CE 0:14:05 5105 4678 -427 5105
4 HABERKORN Chloé 10396 D16 2105BO 0:14:17 5413 4613 -800 5746
5 BEAUVIR Maëlle 12709 D16 3502BR 0:14:22 4492 4586 +94 5174
6 PETER-JAN Lucile 19276 D16 3705CE 0:15:22 4983 4288 -695 4983
7 BORNARD Julie 9402 D16 7305RA 0:15:32 4337 4242 -95 4578
8 RIVOLLIER Isaline 22451 D16 4201RA 0:15:37 3898 4219 +321 4130
9 MOUSSU Sarah 22301 D16 3318AQ 0:15:47 2527 4174 +1647 2980
10 ROULLEAUX Julie 11559 D16 9105IF 0:15:49 5407 4166 -1241 5587
11 DUQUENNE Audrey 23885 D16 5907NO 0:16:18 3535 4042 +507 4000
12 DELENNE Camilla 13800 D16 1307PR 0:16:32 3808 3985 +177 4063
13 BERRARD Anna 19762 D16 2607RA 0:16:36 3885 3969 +84 4126
14 DUDOIGNON Chloé 18089 D14 2605RA 0:17:04 3187 3861 +674 3402
15 GUILBAUD Jenny 19480 D14 4709AQ 0:17:05 3262 3857 +595 3627
16 GUILLEMET Océane 22819 D16 3318AQ 0:17:06 3212 3853 +641 4415
17 BASSET Juliette 12398 D14 6911RA 0:17:18 3674 3808 +134 3754
18 LUTHRINGER Coline 10091 D16 8809LO 0:17:19 4352 3805 -547 4397
19 VALETTE Marion 10430 D16 6913RA 0:17:21 3633 3797 +164 4116
20 CHARDOT Marion 22315 D16 7807IF 0:18:13 4021 3617 -404 4032
21 PICAZO Marie 16555 D16 8405PR 0:18:15 4259 3610 -649 4259
22 DELENNE Joanna 17030 D14 1307PR 0:18:17 2483 3604 +1121 2774
23 VERNOTTE Louise 23552 D16 1905LI 0:18:24 2917 3581 +664 3211
24 BONORA Marine 11542 D16 6906RA 0:18:28 3743 3568 -175 3865
25 FOL Loreline 16393 D16 3105MP 0:18:37 3325 3539 +214 3762
26 MASSIN Margot 22860 D16 5907NO 0:18:37 2739 3539 +800 3515
27 PINZELLI Tamara 23551 D16 1905LI 0:18:59 2776 3471 +695 3219
28 GIRARD Clarisse 22476 D14 2508FC 0:18:59 3058 3471 +413 3187
29 DOUSSET Mathilde 20731 D14 4709AQ 0:19:20 2846 3408 +562 2904
30 LEMERCIER Victoire 11454 D16 5407LO 0:19:26 3643 3390 -253 3712
31 BONORA Lise 11543 D14 6906RA 0:24:57 2148 2641 +493 2528
32 PENAUD Romane 14110 D16 1905LI 0:27:55 0 2360 1757